createdAt,value
2019-03-19T00:01:05.522Z,82.65
2019-03-19T00:03:34.903Z,82.58
2019-03-19T00:06:04.099Z,82.59
2019-03-19T00:08:33.322Z,82.53
2019-03-19T00:11:02.551Z,82.49
2019-03-19T00:13:31.746Z,82.47
2019-03-19T00:16:00.943Z,82.45
2019-03-19T00:18:30.214Z,82.40
2019-03-19T00:20:59.617Z,82.40
2019-03-19T00:23:28.839Z,82.34
2019-03-19T00:25:58.043Z,82.32
2019-03-19T00:28:27.223Z,82.37
2019-03-19T00:30:56.413Z,82.30
2019-03-19T00:33:25.637Z,82.29
2019-03-19T00:35:54.818Z,82.35
2019-03-19T00:38:24.017Z,82.32
2019-03-19T00:40:53.241Z,82.32
2019-03-19T00:43:22.428Z,82.30
2019-03-19T00:45:51.754Z,82.36
2019-03-19T00:48:21.027Z,82.31
2019-03-19T00:50:50.252Z,82.33
2019-03-19T00:53:19.754Z,82.28
2019-03-19T00:55:49.036Z,82.24
2019-03-19T00:58:18.225Z,82.21
2019-03-19T01:00:47.411Z,82.16
2019-03-19T01:03:16.792Z,82.17
2019-03-19T01:05:46.278Z,82.20
2019-03-19T01:08:15.487Z,82.20
2019-03-19T01:10:44.763Z,82.13
2019-03-19T01:13:13.953Z,82.11
2019-03-19T01:15:43.213Z,82.16
2019-03-19T01:18:12.507Z,82.09
2019-03-19T01:20:41.701Z,82.10
2019-03-19T01:23:10.977Z,82.11
2019-03-19T01:25:54.502Z,82.04
2019-03-19T01:28:11.063Z,82.00
2019-03-19T01:30:40.353Z,81.97
2019-03-19T01:33:09.643Z,81.93
2019-03-19T01:35:38.831Z,81.95
2019-03-19T01:38:08.025Z,81.91
2019-03-19T01:40:37.263Z,81.79
2019-03-19T01:43:06.485Z,81.80
2019-03-19T01:45:35.684Z,81.82
2019-03-19T01:48:05.123Z,81.81
2019-03-19T01:50:34.325Z,81.80
2019-03-19T01:53:03.559Z,81.75
2019-03-19T01:55:33.025Z,81.72
2019-03-19T01:58:02.239Z,81.72
2019-03-19T02:00:31.440Z,81.69
2019-03-19T02:03:00.663Z,81.75
2019-03-19T02:05:29.892Z,81.71
2019-03-19T02:07:59.393Z,81.73
2019-03-19T02:10:28.626Z,81.77
2019-03-19T02:12:57.845Z,81.80
2019-03-19T02:15:27.094Z,81.81
2019-03-19T02:17:56.335Z,81.85
2019-03-19T02:20:25.534Z,81.87
2019-03-19T02:22:54.737Z,81.86
2019-03-19T02:25:24.016Z,81.82
2019-03-19T02:27:53.179Z,81.82
2019-03-19T02:30:22.501Z,81.84
2019-03-19T02:32:51.782Z,81.80
2019-03-19T02:35:20.975Z,81.84
2019-03-19T02:37:50.171Z,81.84
2019-03-19T02:40:19.422Z,81.80
2019-03-19T02:42:49.937Z,81.79
2019-03-19T02:45:19.145Z,81.73
2019-03-19T02:47:48.360Z,81.73
2019-03-19T02:50:18.523Z,81.67
2019-03-19T02:52:47.718Z,81.57
2019-03-19T02:55:17.128Z,81.56
2019-03-19T02:57:46.380Z,81.48
2019-03-19T03:00:15.661Z,81.45
2019-03-19T03:02:44.903Z,81.39
2019-03-19T03:05:14.822Z,81.35
2019-03-19T03:07:44.064Z,81.33
2019-03-19T03:10:15.172Z,81.29
2019-03-19T03:12:44.442Z,81.22
2019-03-19T03:15:13.757Z,81.13
2019-03-19T03:17:43.401Z,81.00
2019-03-19T03:20:13.307Z,80.87
2019-03-19T03:22:42.524Z,80.72
2019-03-19T03:25:12.068Z,80.66
2019-03-19T03:27:41.257Z,80.67
2019-03-19T03:30:11.841Z,80.59
2019-03-19T03:32:41.084Z,80.56
2019-03-19T03:35:11.113Z,80.51
2019-03-19T03:37:40.287Z,80.53
2019-03-19T03:40:10.923Z,80.50
2019-03-19T03:42:42.839Z,80.43
2019-03-19T03:45:11.889Z,80.38
2019-03-19T03:47:41.114Z,80.31
2019-03-19T03:50:10.683Z,80.32
2019-03-19T03:52:39.964Z,80.25
2019-03-19T03:55:09.816Z,80.15
2019-03-19T03:57:39.027Z,80.09
2019-03-19T04:00:11.013Z,80.09
2019-03-19T04:02:40.258Z,80.04
2019-03-19T04:05:09.989Z,79.95
2019-03-19T04:07:39.177Z,79.89
2019-03-19T04:10:09.601Z,79.87
2019-03-19T04:12:39.015Z,79.82
2019-03-19T04:15:09.598Z,79.79
2019-03-19T04:17:38.807Z,79.76
2019-03-19T04:20:08.585Z,79.66
2019-03-19T04:22:37.948Z,79.64
2019-03-19T04:25:07.534Z,79.58
2019-03-19T04:27:40.112Z,79.48
2019-03-19T04:30:08.981Z,79.44
2019-03-19T04:32:38.246Z,79.36
2019-03-19T04:35:07.640Z,79.33
2019-03-19T04:37:36.855Z,79.29
2019-03-19T04:40:07.321Z,79.25
2019-03-19T04:42:36.607Z,79.11
2019-03-19T04:45:06.501Z,79.00
2019-03-19T04:47:35.719Z,78.92
2019-03-19T04:50:06.019Z,78.86
2019-03-19T04:52:35.222Z,78.73
2019-03-19T04:55:04.763Z,78.58
2019-03-19T04:57:33.963Z,78.55
2019-03-19T05:00:03.211Z,78.53
2019-03-19T05:02:32.564Z,78.54
2019-03-19T05:05:01.812Z,78.48
2019-03-19T05:07:31.055Z,78.35
2019-03-19T05:10:00.325Z,78.33
2019-03-19T05:12:29.592Z,78.27
2019-03-19T05:14:59.229Z,78.22
2019-03-19T05:17:28.512Z,78.13
2019-03-19T05:19:57.690Z,78.09
2019-03-19T05:22:26.906Z,77.98
2019-03-19T05:24:56.206Z,77.92
2019-03-19T05:27:25.495Z,77.92
2019-03-19T05:29:54.898Z,77.85
2019-03-19T05:32:24.123Z,77.76
2019-03-19T05:34:53.307Z,77.71
2019-03-19T05:37:22.523Z,77.67
2019-03-19T05:39:51.781Z,77.65
2019-03-19T05:42:20.942Z,77.66
2019-03-19T05:44:50.118Z,77.52
2019-03-19T05:47:19.448Z,77.47
2019-03-19T05:49:48.623Z,77.48
2019-03-19T05:52:17.806Z,77.43
2019-03-19T05:54:47.010Z,77.30
2019-03-19T05:57:16.314Z,77.20
2019-03-19T05:59:45.513Z,77.10
2019-03-19T06:02:14.787Z,77.17
2019-03-19T06:04:43.983Z,77.15
2019-03-19T06:07:13.198Z,77.08
2019-03-19T06:09:42.437Z,77.14
2019-03-19T06:12:11.625Z,77.10
2019-03-19T06:14:40.850Z,77.05
2019-03-19T06:17:10.149Z,77.06
2019-03-19T06:19:39.455Z,77.04
2019-03-19T06:22:08.650Z,76.98
2019-03-19T06:24:37.951Z,76.97
2019-03-19T06:27:07.154Z,76.75
2019-03-19T06:29:36.353Z,76.75
2019-03-19T06:32:05.971Z,76.72
2019-03-19T06:34:35.161Z,76.73
2019-03-19T06:37:04.361Z,76.54
2019-03-19T06:39:33.607Z,76.54
2019-03-19T06:42:02.792Z,76.59
2019-03-19T06:44:31.979Z,76.48
2019-03-19T06:47:01.226Z,76.52
2019-03-19T06:49:30.406Z,76.46
2019-03-19T06:51:59.623Z,76.41
2019-03-19T06:54:29.089Z,76.32
2019-03-19T06:56:58.279Z,76.39
2019-03-19T06:59:27.747Z,76.42
2019-03-19T07:01:56.969Z,76.39
2019-03-19T07:04:26.158Z,76.23
2019-03-19T07:06:55.328Z,76.19
2019-03-19T07:09:24.588Z,76.17
2019-03-19T07:11:53.831Z,75.98
2019-03-19T07:14:23.035Z,75.92
2019-03-19T07:16:52.285Z,75.85
2019-03-19T07:19:21.587Z,75.93
2019-03-19T07:21:50.863Z,75.87
2019-03-19T07:24:20.098Z,75.77
2019-03-19T07:26:49.321Z,75.72
2019-03-19T07:29:18.510Z,75.63
2019-03-19T07:31:47.752Z,75.47
2019-03-19T07:34:17.243Z,75.30
2019-03-19T07:36:46.433Z,75.36
2019-03-19T07:39:15.671Z,75.32
2019-03-19T07:41:44.887Z,75.26
2019-03-19T07:44:14.080Z,75.28
2019-03-19T07:46:45.830Z,75.26
2019-03-19T07:49:14.462Z,75.10
2019-03-19T07:51:43.670Z,75.06
2019-03-19T07:54:13.119Z,75.05
2019-03-19T07:56:42.303Z,74.77
2019-03-19T07:59:11.513Z,74.54
2019-03-19T08:01:40.880Z,74.59
2019-03-19T08:04:10.084Z,74.56
2019-03-19T08:06:39.266Z,74.54
2019-03-19T08:09:08.908Z,74.48
2019-03-19T08:11:38.103Z,74.24
2019-03-19T08:14:07.314Z,74.13
2019-03-19T08:16:36.579Z,74.16
2019-03-19T08:19:05.767Z,73.96
2019-03-19T08:21:34.966Z,73.94
2019-03-19T08:24:04.202Z,74.02
2019-03-19T08:26:33.578Z,73.80
2019-03-19T08:29:02.906Z,73.61
2019-03-19T08:31:32.124Z,73.71
2019-03-19T08:34:01.361Z,73.61
2019-03-19T08:36:30.862Z,73.58
2019-03-19T08:39:00.068Z,73.22
2019-03-19T08:41:29.258Z,73.13
2019-03-19T08:43:58.474Z,73.25
2019-03-19T08:46:27.731Z,73.08
2019-03-19T08:48:56.942Z,72.94
2019-03-19T08:51:26.136Z,73.09
2019-03-19T08:53:55.392Z,73.01
2019-03-19T08:56:24.692Z,72.89
2019-03-19T08:58:53.881Z,72.62
2019-03-19T09:01:23.136Z,72.50
2019-03-19T09:03:52.516Z,72.61
2019-03-19T09:06:21.707Z,72.63
2019-03-19T09:08:50.967Z,72.56
2019-03-19T09:11:20.169Z,72.21
2019-03-19T09:13:49.394Z,71.81
2019-03-19T09:16:18.749Z,71.75
2019-03-19T09:18:47.941Z,71.67
2019-03-19T09:21:17.132Z,71.74
2019-03-19T09:23:46.364Z,71.71
2019-03-19T09:26:15.646Z,71.62
2019-03-19T09:28:44.836Z,71.34
2019-03-19T09:31:14.079Z,71.06
2019-03-19T09:33:43.330Z,72.31
2019-03-19T09:36:12.603Z,70.86
2019-03-19T09:38:42.334Z,69.92
2019-03-19T09:41:11.528Z,69.60
2019-03-19T09:43:40.710Z,69.75
2019-03-19T09:46:09.933Z,69.44
2019-03-19T09:48:39.123Z,68.82
2019-03-19T09:51:08.358Z,68.60
2019-03-19T09:53:37.589Z,68.10
2019-03-19T09:56:06.830Z,67.45
2019-03-19T09:58:36.028Z,68.95
2019-03-19T10:01:05.670Z,69.69
2019-03-19T10:03:34.857Z,68.35
2019-03-19T10:06:13.895Z,67.09
2019-03-19T10:08:35.277Z,66.41
2019-03-19T10:11:04.471Z,65.64
2019-03-19T10:13:33.673Z,65.16
2019-03-19T10:16:02.911Z,64.73
2019-03-19T10:18:32.143Z,64.78
2019-03-19T10:21:01.343Z,64.62
2019-03-19T10:23:30.870Z,64.58
2019-03-19T10:26:00.093Z,65.84
2019-03-19T10:28:29.293Z,64.80
2019-03-19T10:30:58.502Z,64.75
2019-03-19T10:33:27.704Z,64.86
2019-03-19T10:35:56.915Z,65.75
2019-03-19T10:38:26.170Z,64.17
2019-03-19T10:40:55.646Z,63.10
2019-03-19T10:43:24.937Z,62.41
2019-03-19T10:45:54.176Z,61.65
2019-03-19T10:48:23.423Z,61.90
2019-03-19T10:50:52.677Z,61.46
2019-03-19T10:53:21.943Z,61.24
2019-03-19T10:55:51.142Z,61.17
2019-03-19T10:58:20.428Z,61.14
2019-03-19T11:00:52.522Z,61.33
2019-03-19T11:03:21.806Z,61.69
2019-03-19T11:05:51.035Z,61.69
2019-03-19T11:08:20.412Z,61.05
2019-03-19T11:10:49.632Z,60.99
2019-03-19T11:13:18.827Z,60.40
2019-03-19T11:15:48.105Z,60.52
2019-03-19T11:18:17.294Z,61.35
2019-03-19T11:20:46.497Z,60.80
2019-03-19T11:23:15.720Z,59.81
2019-03-19T11:25:54.091Z,58.30
2019-03-19T11:28:15.832Z,56.73
2019-03-19T11:30:45.916Z,56.66
2019-03-19T11:33:15.096Z,56.39
2019-03-19T11:35:45.744Z,55.89
2019-03-19T11:38:15.357Z,55.46
2019-03-19T11:40:44.757Z,54.20
2019-03-19T11:43:16.850Z,54.08
2019-03-19T11:45:46.110Z,52.75
2019-03-19T11:48:15.312Z,51.93
2019-03-19T11:50:44.513Z,51.56
2019-03-19T11:53:13.742Z,51.64
2019-03-19T11:55:43.201Z,51.06
2019-03-19T11:58:12.413Z,50.09
2019-03-19T12:00:44.124Z,49.82
2019-03-19T12:03:16.389Z,49.92
2019-03-19T12:05:44.387Z,50.58
2019-03-19T12:08:13.659Z,50.24
2019-03-19T12:10:43.092Z,49.82
2019-03-19T12:13:12.307Z,49.63
2019-03-19T12:15:41.558Z,48.47
2019-03-19T12:18:10.788Z,47.40
2019-03-19T12:20:40.014Z,47.09
2019-03-19T12:23:09.238Z,47.41
2019-03-19T12:25:38.617Z,46.90
2019-03-19T12:28:07.855Z,47.70
2019-03-19T12:30:37.130Z,47.87
2019-03-19T12:33:06.368Z,46.74
2019-03-19T12:35:35.590Z,46.13
2019-03-19T12:38:04.862Z,45.14
2019-03-19T12:40:37.367Z,43.93
2019-03-19T12:43:05.354Z,43.44
2019-03-19T12:45:34.701Z,43.18
2019-03-19T12:48:04.107Z,42.92
2019-03-19T12:50:33.445Z,42.52
2019-03-19T12:53:02.759Z,41.59
2019-03-19T12:55:31.970Z,41.62
2019-03-19T12:58:01.608Z,41.05
2019-03-19T13:00:34.682Z,40.58
2019-03-19T13:03:01.860Z,41.37
2019-03-19T13:05:31.163Z,41.13
2019-03-19T13:08:00.422Z,40.87
2019-03-19T13:10:29.612Z,40.73
2019-03-19T13:12:59.111Z,40.56
2019-03-19T13:15:28.446Z,40.72
2019-03-19T13:17:57.647Z,40.49
2019-03-19T13:20:26.868Z,40.08
2019-03-19T13:22:56.111Z,39.46
2019-03-19T13:25:25.338Z,38.40
2019-03-19T13:27:54.635Z,37.97
2019-03-19T13:30:23.912Z,38.13
2019-03-19T13:32:53.104Z,38.02
2019-03-19T13:35:22.306Z,37.75
2019-03-19T13:37:51.650Z,37.84
2019-03-19T13:40:20.850Z,38.40
2019-03-19T13:42:50.127Z,38.21
2019-03-19T13:45:19.410Z,38.38
2019-03-19T13:47:48.623Z,38.40
2019-03-19T13:50:18.865Z,38.03
2019-03-19T13:52:48.134Z,37.53
2019-03-19T13:55:17.735Z,38.51
2019-03-19T13:57:47.359Z,38.01
2019-03-19T14:00:16.777Z,37.82
2019-03-19T14:02:45.968Z,37.63
2019-03-19T14:05:15.732Z,36.90
2019-03-19T14:07:44.970Z,36.87
2019-03-19T14:10:14.284Z,37.34
2019-03-19T14:12:43.480Z,38.04
2019-03-19T14:15:14.389Z,38.12
2019-03-19T14:17:43.609Z,37.82
2019-03-19T14:20:14.485Z,37.54
2019-03-19T14:22:45.408Z,37.33
2019-03-19T14:25:14.980Z,37.05
2019-03-19T14:27:44.314Z,37.84
2019-03-19T14:30:15.572Z,38.38
2019-03-19T14:32:44.783Z,39.11
2019-03-19T14:35:14.014Z,39.09
2019-03-19T14:37:43.311Z,38.04
2019-03-19T14:40:13.953Z,38.24
2019-03-19T14:42:43.361Z,39.13
2019-03-19T14:45:12.790Z,38.63
2019-03-19T14:47:42.025Z,39.31
2019-03-19T14:50:12.390Z,40.13
2019-03-19T14:52:43.803Z,40.41
2019-03-19T14:55:12.548Z,41.23
2019-03-19T14:57:41.772Z,41.71
2019-03-19T15:00:12.523Z,41.98
2019-03-19T15:02:41.733Z,42.70
2019-03-19T15:05:11.573Z,42.83
2019-03-19T15:07:40.898Z,43.39
2019-03-19T15:10:12.297Z,43.90
2019-03-19T15:12:41.595Z,44.43
2019-03-19T15:15:11.839Z,44.68
2019-03-19T15:17:41.417Z,44.90
2019-03-19T15:20:13.107Z,45.35
2019-03-19T15:22:42.408Z,45.73
2019-03-19T15:25:11.652Z,45.92
2019-03-19T15:27:40.866Z,46.04
2019-03-19T15:30:10.350Z,46.17
2019-03-19T15:32:39.584Z,46.57
2019-03-19T15:35:10.005Z,46.88
2019-03-19T15:37:39.279Z,47.08
2019-03-19T15:40:10.514Z,47.40
2019-03-19T15:42:39.765Z,47.54
2019-03-19T15:45:09.935Z,47.49
2019-03-19T15:47:39.264Z,47.74
2019-03-19T15:50:10.418Z,47.89
2019-03-19T15:52:39.746Z,48.15
2019-03-19T15:55:08.971Z,48.44
2019-03-19T15:57:38.181Z,48.60
2019-03-19T16:00:09.996Z,48.44
2019-03-19T16:02:39.194Z,48.69
2019-03-19T16:05:09.419Z,48.42
2019-03-19T16:07:38.651Z,48.35
2019-03-19T16:10:08.197Z,48.47
2019-03-19T16:12:37.391Z,48.72
2019-03-19T16:15:07.525Z,48.83
2019-03-19T16:17:36.907Z,48.74
2019-03-19T16:20:08.354Z,48.67
2019-03-19T16:22:37.645Z,48.49
2019-03-19T16:25:07.131Z,48.32
2019-03-19T16:27:36.432Z,48.32
2019-03-19T16:30:06.983Z,48.61
2019-03-19T16:32:36.272Z,48.89
2019-03-19T16:35:05.837Z,49.21
2019-03-19T16:37:35.138Z,49.47
2019-03-19T16:40:04.764Z,49.66
2019-03-19T16:42:33.956Z,49.95
2019-03-19T16:45:03.187Z,50.20
2019-03-19T16:47:32.375Z,50.39
2019-03-19T16:50:01.574Z,50.74
2019-03-19T16:52:31.080Z,51.06
2019-03-19T16:55:00.335Z,51.16
2019-03-19T16:57:29.547Z,51.29
2019-03-19T16:59:58.885Z,51.51
2019-03-19T17:02:28.311Z,51.80
2019-03-19T17:04:57.568Z,51.98
2019-03-19T17:07:26.812Z,52.23
2019-03-19T17:09:56.109Z,52.45
2019-03-19T17:12:25.385Z,52.73
2019-03-19T17:14:54.859Z,52.88
2019-03-19T17:17:24.089Z,53.05
2019-03-19T17:19:53.272Z,53.24
2019-03-19T17:22:22.808Z,53.40
2019-03-19T17:24:51.999Z,53.55
2019-03-19T17:27:21.207Z,53.58
2019-03-19T17:29:50.532Z,53.69
2019-03-19T17:32:23.236Z,53.81
2019-03-19T17:34:52.478Z,53.91
2019-03-19T17:37:21.685Z,54.03
2019-03-19T17:39:50.885Z,54.30
2019-03-19T17:42:20.121Z,54.59
2019-03-19T17:44:49.318Z,54.71
2019-03-19T17:47:18.513Z,54.78
2019-03-19T17:49:47.754Z,54.92
2019-03-19T17:52:17.046Z,55.01
2019-03-19T17:54:46.351Z,55.12
2019-03-19T17:57:15.723Z,55.13
2019-03-19T17:59:44.943Z,55.25
2019-03-19T18:02:23.614Z,55.37
2019-03-19T18:04:45.118Z,55.50
2019-03-19T18:07:14.332Z,55.69
2019-03-19T18:09:43.521Z,55.77
2019-03-19T18:12:12.767Z,55.95
2019-03-19T18:14:41.975Z,56.08
2019-03-19T18:17:11.160Z,56.18
2019-03-19T18:19:40.468Z,56.24
2019-03-19T18:22:09.729Z,56.32
2019-03-19T18:24:42.065Z,56.42
2019-03-19T18:27:11.337Z,56.41
2019-03-19T18:29:40.572Z,56.56
2019-03-19T18:32:09.999Z,56.70
2019-03-19T18:34:39.302Z,56.82
2019-03-19T18:37:08.598Z,56.84
2019-03-19T18:39:37.940Z,57.00
2019-03-19T18:42:07.237Z,57.18
2019-03-19T18:44:36.267Z,57.31
2019-03-19T18:47:05.505Z,57.39
2019-03-19T18:49:34.791Z,57.49
2019-03-19T18:52:04.097Z,57.57
2019-03-19T18:54:33.364Z,57.65
2019-03-19T18:57:02.634Z,57.77
2019-03-19T18:59:31.900Z,57.76
2019-03-19T19:02:01.154Z,57.78
2019-03-19T19:04:30.550Z,57.82
2019-03-19T19:06:59.799Z,57.97
2019-03-19T19:09:29.035Z,58.05
2019-03-19T19:11:58.334Z,58.16
2019-03-19T19:14:27.830Z,58.29
2019-03-19T19:16:57.127Z,58.45
2019-03-19T19:19:26.450Z,58.54
2019-03-19T19:21:55.753Z,58.72
2019-03-19T19:24:24.988Z,58.85
2019-03-19T19:26:54.750Z,58.96
2019-03-19T19:29:24.081Z,59.02
2019-03-19T19:31:53.418Z,59.16
2019-03-19T19:34:22.734Z,59.30
2019-03-19T19:36:51.876Z,59.34
2019-03-19T19:39:21.062Z,59.36
2019-03-19T19:41:50.347Z,59.47
2019-03-19T19:44:19.594Z,59.60
2019-03-19T19:46:48.786Z,59.74
2019-03-19T19:49:18.028Z,59.83
2019-03-19T19:51:47.289Z,59.90
2019-03-19T19:54:16.436Z,59.91
2019-03-19T19:56:45.792Z,59.96
2019-03-19T19:59:14.995Z,60.19
2019-03-19T20:01:44.237Z,60.36
2019-03-19T20:04:13.575Z,60.55
2019-03-19T20:06:42.763Z,60.75
2019-03-19T20:09:12.068Z,60.93
2019-03-19T20:11:42.102Z,61.02
2019-03-19T20:14:11.292Z,61.16
2019-03-19T20:16:40.773Z,61.29
2019-03-19T20:19:10.551Z,61.49
2019-03-19T20:21:39.880Z,61.62
2019-03-19T20:24:09.152Z,61.65
2019-03-19T20:26:38.682Z,61.89
2019-03-19T20:29:08.015Z,62.10
2019-03-19T20:31:37.239Z,62.28
2019-03-19T20:34:06.679Z,62.41
2019-03-19T20:36:35.958Z,62.59
2019-03-19T20:39:07.899Z,62.80
2019-03-19T20:41:37.319Z,62.94
2019-03-19T20:44:06.564Z,63.10
2019-03-19T20:46:35.785Z,63.18
2019-03-19T20:49:05.047Z,63.23
2019-03-19T20:51:34.251Z,63.16
2019-03-19T20:54:04.885Z,63.38
2019-03-19T20:56:34.350Z,63.52
2019-03-19T20:59:03.643Z,63.67
2019-03-19T21:01:36.279Z,63.64
2019-03-19T21:04:05.728Z,63.70
2019-03-19T21:06:35.063Z,63.74
2019-03-19T21:09:06.024Z,63.82
2019-03-19T21:11:35.417Z,64.02
2019-03-19T21:14:04.631Z,64.08
2019-03-19T21:16:34.150Z,64.15
2019-03-19T21:19:03.490Z,64.05
2019-03-19T21:21:32.833Z,64.04
2019-03-19T21:24:02.205Z,64.06
2019-03-19T21:26:31.646Z,64.13
2019-03-19T21:29:00.831Z,64.21
2019-03-19T21:31:30.317Z,64.26
2019-03-19T21:33:59.718Z,64.15
2019-03-19T21:36:29.099Z,64.43
2019-03-19T21:38:58.384Z,64.54
2019-03-19T21:41:27.639Z,64.53
2019-03-19T21:43:56.921Z,64.58
2019-03-19T21:46:26.140Z,64.62
2019-03-19T21:48:55.370Z,64.69
2019-03-19T21:51:24.567Z,64.70
2019-03-19T21:53:53.747Z,64.67
2019-03-19T21:56:22.976Z,64.69
2019-03-19T21:58:52.167Z,64.77
2019-03-19T22:01:21.357Z,64.80
2019-03-19T22:03:50.617Z,64.87
2019-03-19T22:06:19.813Z,64.90
2019-03-19T22:08:49.065Z,64.95
2019-03-19T22:11:18.331Z,65.03
2019-03-19T22:13:47.555Z,65.12
2019-03-19T22:16:16.810Z,65.22
2019-03-19T22:18:46.137Z,65.29
2019-03-19T22:21:15.432Z,65.43
2019-03-19T22:23:44.754Z,65.44
2019-03-19T22:26:14.056Z,65.52
2019-03-19T22:28:43.275Z,65.54
2019-03-19T22:31:12.465Z,65.62
2019-03-19T22:33:41.888Z,65.68
2019-03-19T22:36:11.999Z,65.79
2019-03-19T22:38:41.575Z,65.83
2019-03-19T22:41:10.805Z,65.93
2019-03-19T22:43:40.006Z,66.10
2019-03-19T22:46:09.182Z,66.32
2019-03-19T22:48:38.505Z,66.42
2019-03-19T22:51:07.699Z,66.51
2019-03-19T22:53:36.895Z,66.62
2019-03-19T22:56:06.213Z,66.64
2019-03-19T22:58:35.533Z,66.94
2019-03-19T23:01:04.932Z,67.15
2019-03-19T23:03:34.159Z,67.10
2019-03-19T23:06:03.384Z,67.23
2019-03-19T23:08:32.680Z,67.22
2019-03-19T23:11:01.898Z,67.20
2019-03-19T23:13:31.155Z,67.26
2019-03-19T23:16:00.321Z,67.33
2019-03-19T23:18:29.542Z,67.20
2019-03-19T23:20:58.778Z,67.20
2019-03-19T23:23:27.972Z,67.21
2019-03-19T23:25:57.187Z,67.18
2019-03-19T23:28:26.387Z,67.10
2019-03-19T23:30:55.659Z,67.01
2019-03-19T23:33:24.889Z,66.95
2019-03-19T23:35:54.517Z,66.94
2019-03-19T23:38:23.719Z,67.01
2019-03-19T23:40:53.403Z,67.02
2019-03-19T23:43:22.752Z,67.11
2019-03-19T23:45:51.955Z,67.17
2019-03-19T23:48:21.204Z,67.19
2019-03-19T23:50:50.399Z,67.19
2019-03-19T23:53:19.675Z,67.20
2019-03-19T23:55:48.914Z,67.14
2019-03-19T23:58:18.112Z,67.19
